Terminal Aerodrome Forecast
Issued by NWS Blacksburg, VA

Home | Current Version | Previous Version | Text Only | Print | Product List | Glossary On
Versions: 1 2 3 4 5 6 7 8 9 10 11 12 13 14 15 16 17 18 19 20 21 22 23 24 25 26 27
000
FTUS41 KRNK 040540
TAFROA
TAF
KROA 040540Z 0406/0506 15004KT P6SM SCT070
     FM041400 20006KT P6SM SCT050
     FM041900 19008G18KT P6SM BKN060
     FM042300 16005KT P6SM SCT070 SCT250=

USA.gov is the U.S. government's official web portal to all federal, state and local government web resources and services.